createdAt,value
2023-01-23T09:17:34.766Z,24.77
2023-01-23T09:18:12.457Z,24.81
2023-01-23T09:19:12.427Z,24.80
2023-01-23T09:20:12.447Z,24.80
2023-01-23T09:21:13.237Z,24.80
2023-01-23T09:22:12.487Z,24.80
2023-01-23T09:23:12.391Z,24.77
2023-01-23T09:24:12.394Z,24.67
2023-01-23T09:25:12.444Z,24.61
2023-01-23T09:26:13.060Z,24.62
2023-01-23T09:28:39.248Z,24.62
2023-01-23T09:29:13.549Z,24.60
2023-01-23T09:29:44.906Z,24.53
2023-01-23T09:30:44.964Z,24.52
2023-01-23T09:31:45.577Z,24.52
2023-01-23T09:32:45.779Z,24.55
2023-01-23T09:33:48.917Z,24.57
2023-01-23T09:34:49.804Z,24.58
2023-01-23T09:35:46.835Z,24.46
2023-01-23T09:36:45.649Z,24.45
2023-01-23T09:37:44.850Z,24.39
2023-01-23T09:38:48.292Z,24.34
2023-01-23T09:39:44.833Z,24.35
2023-01-23T09:40:44.814Z,24.32
2023-01-23T09:43:12.650Z,24.28
2023-01-23T09:43:18.358Z,24.22
2023-01-23T09:44:20.096Z,24.25
2023-01-23T09:45:19.936Z,24.30
2023-01-23T09:46:21.787Z,24.28
2023-01-23T09:47:20.798Z,24.31
2023-01-23T09:48:18.253Z,24.34
2023-01-23T09:49:19.980Z,24.42
2023-01-23T09:50:19.063Z,24.47
2023-01-23T09:51:20.113Z,24.50
2023-01-23T09:52:18.255Z,24.52
2023-01-23T09:53:19.182Z,24.47
2023-01-23T09:54:20.283Z,24.46
2023-01-23T10:09:58.609Z,24.80
2023-01-23T10:10:56.915Z,24.81
2023-01-23T10:11:56.550Z,24.84
2023-01-23T10:12:59.772Z,24.91
2023-01-23T10:16:09.278Z,25.00
2023-01-23T10:18:03.816Z,24.99
2023-01-23T10:18:10.192Z,25.08
2023-01-23T10:19:10.288Z,25.10
2023-01-23T10:20:10.167Z,25.15
2023-01-23T10:21:10.421Z,25.21
2023-01-23T10:22:22.231Z,25.30
2023-01-23T10:23:10.171Z,25.38
2023-01-23T10:24:10.156Z,25.40
2023-01-23T10:25:12.701Z,25.35
2023-01-23T10:26:10.906Z,25.35
2023-01-23T10:27:13.084Z,25.39
2023-01-23T10:28:11.005Z,25.39
2023-01-23T10:29:11.183Z,25.33
2023-01-23T10:30:10.077Z,25.13
2023-01-23T10:31:12.348Z,25.03
2023-01-23T10:32:10.735Z,24.99
2023-01-23T10:33:11.107Z,24.95
2023-01-23T10:34:10.591Z,24.95
2023-01-23T10:35:10.077Z,24.96
2023-01-23T10:36:12.511Z,25.02
2023-01-23T10:37:10.013Z,25.06
